createdAt,value
2022-11-19T00:02:02.043Z,93.50
2022-11-19T00:04:31.223Z,93.20
2022-11-19T00:06:59.147Z,92.31
2022-11-19T00:09:27.132Z,92.58
2022-11-19T00:12:12.522Z,92.63
2022-11-19T00:14:40.420Z,92.59
2022-11-19T00:17:08.247Z,92.84
2022-11-19T00:19:37.455Z,91.57
2022-11-19T00:22:05.248Z,93.21
2022-11-19T00:24:33.017Z,93.12
2022-11-19T00:27:00.946Z,93.51
2022-11-19T00:29:28.940Z,93.17
2022-11-19T00:31:56.699Z,92.40
2022-11-19T00:34:24.474Z,93.38
2022-11-19T00:36:53.584Z,93.01
2022-11-19T00:39:22.169Z,91.61
2022-11-19T00:41:50.298Z,91.96
2022-11-19T00:44:18.087Z,91.26
2022-11-19T00:46:45.902Z,91.18
2022-11-19T00:49:13.690Z,90.80
2022-11-19T00:51:41.501Z,91.28
2022-11-19T00:54:10.773Z,91.49
2022-11-19T00:56:38.814Z,90.79
2022-11-19T00:59:06.745Z,90.66
2022-11-19T01:01:34.798Z,91.01
2022-11-19T01:04:02.806Z,89.54
2022-11-19T01:06:30.634Z,90.39
2022-11-19T01:08:58.704Z,90.70
2022-11-19T01:11:30.094Z,90.69
2022-11-19T01:13:58.926Z,90.56
2022-11-19T01:16:28.503Z,91.45
2022-11-19T01:18:56.776Z,90.21
2022-11-19T01:21:27.477Z,90.43
2022-11-19T01:23:57.608Z,89.42
2022-11-19T01:26:27.879Z,89.47
2022-11-19T01:28:56.737Z,91.07
2022-11-19T01:31:26.958Z,90.79
2022-11-19T01:33:55.090Z,90.50
2022-11-19T01:36:24.795Z,89.91
2022-11-19T01:38:52.906Z,90.35
2022-11-19T01:41:21.759Z,89.91
2022-11-19T01:43:52.967Z,88.80
2022-11-19T01:46:23.029Z,88.99
2022-11-19T01:48:55.084Z,88.88
2022-11-19T01:51:26.563Z,89.42
2022-11-19T01:53:56.807Z,89.91
2022-11-19T01:56:25.049Z,89.57
2022-11-19T01:59:00.233Z,89.53
2022-11-19T02:01:30.328Z,88.10
2022-11-19T02:04:01.803Z,89.25
2022-11-19T02:06:30.613Z,89.05
2022-11-19T02:08:58.740Z,89.25
2022-11-19T02:11:53.636Z,89.55
2022-11-19T02:14:38.169Z,88.54
2022-11-19T02:17:14.433Z,88.28
2022-11-19T02:20:21.918Z,89.22
2022-11-19T02:23:10.040Z,88.99
2022-11-19T02:25:55.871Z,88.31
2022-11-19T02:28:34.441Z,88.52
2022-11-19T02:31:10.660Z,89.04
2022-11-19T02:33:49.292Z,89.77
2022-11-19T02:36:24.112Z,88.98
2022-11-19T02:38:54.939Z,87.88
2022-11-19T02:41:37.662Z,88.39
2022-11-19T02:44:36.066Z,88.61
2022-11-19T02:47:09.880Z,89.08
2022-11-19T02:49:43.143Z,87.54
2022-11-19T02:52:11.122Z,87.77
2022-11-19T02:54:39.338Z,87.45
2022-11-19T02:57:07.495Z,87.86
2022-11-19T02:59:59.075Z,88.34
2022-11-19T03:02:49.987Z,88.45
2022-11-19T03:05:22.203Z,87.82
2022-11-19T03:07:50.497Z,88.32
2022-11-19T03:10:21.075Z,87.91
2022-11-19T03:12:53.029Z,88.12
2022-11-19T03:15:49.056Z,87.91
2022-11-19T03:18:24.524Z,88.15
2022-11-19T03:20:56.128Z,87.83
2022-11-19T03:23:29.631Z,87.19
2022-11-19T03:26:02.725Z,87.33
2022-11-19T03:28:37.129Z,87.53
2022-11-19T03:31:06.910Z,87.83
2022-11-19T03:33:42.807Z,88.32
2022-11-19T03:36:15.671Z,88.53
2022-11-19T03:38:48.172Z,88.38
2022-11-19T03:41:19.167Z,88.34
2022-11-19T03:43:53.369Z,88.66
2022-11-19T03:46:23.615Z,88.14
2022-11-19T03:48:54.804Z,88.73
2022-11-19T03:51:27.217Z,88.03
2022-11-19T03:53:55.396Z,88.33
2022-11-19T03:56:27.669Z,88.73
2022-11-19T03:58:55.588Z,88.64
2022-11-19T04:01:23.685Z,88.46
2022-11-19T04:04:10.699Z,88.77
2022-11-19T04:06:38.577Z,88.56
2022-11-19T04:09:06.598Z,88.20
2022-11-19T04:11:34.487Z,88.81
2022-11-19T04:14:02.305Z,88.68
2022-11-19T04:16:30.086Z,88.66
2022-11-19T04:18:59.343Z,88.69
2022-11-19T04:21:27.326Z,88.78
2022-11-19T04:23:55.447Z,89.25
2022-11-19T04:26:23.282Z,87.47
2022-11-19T04:28:51.078Z,88.71
2022-11-19T04:31:18.857Z,88.47
2022-11-19T04:33:46.931Z,88.46
2022-11-19T04:36:16.140Z,88.04
2022-11-19T04:38:43.968Z,88.57
2022-11-19T04:41:11.949Z,90.55
2022-11-19T04:43:39.876Z,89.97
2022-11-19T04:46:08.023Z,89.41
2022-11-19T04:48:35.860Z,88.53
2022-11-19T04:51:03.709Z,88.55
2022-11-19T04:53:32.927Z,88.25
2022-11-19T04:56:00.841Z,88.75
2022-11-19T04:58:28.969Z,88.45
2022-11-19T05:00:56.851Z,88.43
2022-11-19T05:03:24.611Z,88.66
2022-11-19T05:05:52.695Z,88.48
2022-11-19T05:08:20.528Z,88.64
2022-11-19T05:10:50.620Z,88.13
2022-11-19T05:13:18.549Z,88.10
2022-11-19T05:15:47.104Z,88.06
2022-11-19T05:18:15.832Z,87.52
2022-11-19T05:20:43.907Z,88.04
2022-11-19T05:23:11.863Z,88.47
2022-11-19T05:25:39.709Z,88.82
2022-11-19T05:28:08.995Z,88.21
2022-11-19T05:30:37.041Z,87.39
2022-11-19T05:33:05.020Z,87.98
2022-11-19T05:35:33.197Z,87.60
2022-11-19T05:38:01.094Z,86.94
2022-11-19T05:40:28.876Z,87.87
2022-11-19T05:42:56.822Z,87.38
2022-11-19T05:45:26.335Z,87.10
2022-11-19T05:47:55.871Z,87.69
2022-11-19T05:50:23.722Z,87.13
2022-11-19T05:52:51.636Z,87.16
2022-11-19T05:55:20.757Z,86.86
2022-11-19T05:57:48.719Z,87.91
2022-11-19T06:00:17.889Z,88.38
2022-11-19T06:02:47.380Z,87.33
2022-11-19T06:05:15.671Z,86.32
2022-11-19T06:07:43.693Z,86.52
2022-11-19T06:10:11.530Z,87.33
2022-11-19T06:12:45.164Z,87.61
2022-11-19T06:15:14.176Z,87.54
2022-11-19T06:17:42.001Z,87.59
2022-11-19T06:20:12.154Z,86.42
2022-11-19T06:22:41.018Z,87.25
2022-11-19T06:25:09.670Z,87.94
2022-11-19T06:27:37.651Z,87.49
2022-11-19T06:30:06.549Z,86.80
2022-11-19T06:32:34.403Z,87.67
2022-11-19T06:35:02.287Z,87.38
2022-11-19T06:37:31.576Z,87.21
2022-11-19T06:39:59.370Z,87.09
2022-11-19T06:42:39.489Z,87.66
2022-11-19T06:45:10.073Z,86.73
2022-11-19T06:47:38.567Z,88.03
2022-11-19T06:50:07.308Z,86.68
2022-11-19T06:52:36.817Z,86.34
2022-11-19T06:55:05.147Z,86.51
2022-11-19T06:57:33.011Z,86.45
2022-11-19T07:00:01.197Z,87.15
2022-11-19T07:02:29.114Z,86.51
2022-11-19T07:04:56.961Z,86.62
2022-11-19T07:07:24.781Z,86.88
2022-11-19T07:09:54.083Z,86.34
2022-11-19T07:12:21.972Z,86.67
2022-11-19T07:14:49.940Z,86.71
2022-11-19T07:17:17.839Z,86.19
2022-11-19T07:19:45.653Z,86.74
2022-11-19T07:22:13.622Z,86.76
2022-11-19T07:24:41.521Z,85.59
2022-11-19T07:27:10.772Z,85.70
2022-11-19T07:29:39.329Z,85.75
2022-11-19T07:32:07.177Z,85.89
2022-11-19T07:34:35.238Z,84.13
2022-11-19T07:37:03.072Z,85.17
2022-11-19T07:39:30.829Z,85.24
2022-11-19T07:42:16.155Z,86.25
2022-11-19T07:44:45.387Z,84.52
2022-11-19T07:47:13.224Z,84.31
2022-11-19T07:49:41.062Z,82.76
2022-11-19T07:52:09.313Z,83.45
2022-11-19T07:54:37.237Z,84.23
2022-11-19T07:57:05.364Z,84.31
2022-11-19T07:59:33.348Z,83.96
2022-11-19T08:02:02.747Z,83.71
2022-11-19T08:04:30.631Z,84.45
2022-11-19T08:06:58.501Z,84.46
2022-11-19T08:09:26.637Z,83.95
2022-11-19T08:11:54.448Z,82.65
2022-11-19T08:14:22.549Z,83.96
2022-11-19T08:17:08.083Z,84.65
2022-11-19T08:19:37.515Z,84.44
2022-11-19T08:22:05.398Z,84.75
2022-11-19T08:24:33.190Z,84.82
2022-11-19T08:27:02.217Z,83.34
2022-11-19T08:29:30.046Z,83.39
2022-11-19T08:31:57.899Z,83.52
2022-11-19T08:34:25.835Z,84.25
2022-11-19T08:36:55.063Z,85.26
2022-11-19T08:39:22.865Z,84.26
2022-11-19T08:42:08.163Z,83.13
2022-11-19T08:44:36.071Z,83.35
2022-11-19T08:47:04.243Z,83.12
2022-11-19T08:49:32.200Z,83.24
2022-11-19T08:52:01.521Z,83.87
2022-11-19T08:54:29.376Z,82.90
2022-11-19T08:56:57.153Z,83.37
2022-11-19T08:59:25.334Z,84.59
2022-11-19T09:01:53.320Z,83.95
2022-11-19T09:04:21.664Z,84.78
2022-11-19T09:06:49.732Z,83.63
2022-11-19T09:09:19.947Z,83.20
2022-11-19T09:11:47.782Z,84.11
2022-11-19T09:14:15.763Z,83.71
2022-11-19T09:16:43.650Z,84.48
2022-11-19T09:19:11.488Z,84.77
2022-11-19T09:21:39.403Z,84.30
2022-11-19T09:24:07.788Z,83.48
2022-11-19T09:26:37.084Z,83.34
2022-11-19T09:29:04.964Z,82.98
2022-11-19T09:31:32.805Z,82.13
2022-11-19T09:34:00.831Z,83.20
2022-11-19T09:36:28.654Z,82.17
2022-11-19T09:38:57.970Z,83.86
2022-11-19T09:41:55.548Z,82.77
2022-11-19T09:44:45.000Z,83.30
2022-11-19T09:47:24.020Z,82.21
2022-11-19T09:50:01.808Z,82.60
2022-11-19T09:52:34.581Z,81.54
2022-11-19T09:55:03.647Z,82.18
2022-11-19T09:57:37.844Z,81.83
2022-11-19T10:00:10.885Z,80.95
2022-11-19T10:02:38.874Z,81.97
2022-11-19T10:05:07.762Z,81.50
2022-11-19T10:07:45.372Z,80.96
2022-11-19T10:10:29.387Z,80.31
2022-11-19T10:13:12.856Z,81.93
2022-11-19T10:16:06.378Z,80.70
2022-11-19T10:18:46.479Z,80.73
2022-11-19T10:21:20.096Z,80.24
2022-11-19T10:23:52.938Z,80.05
2022-11-19T10:26:28.321Z,80.21
2022-11-19T10:28:58.643Z,81.52
2022-11-19T10:31:34.000Z,80.75
2022-11-19T10:34:08.955Z,80.96
2022-11-19T10:36:42.995Z,80.97
2022-11-19T10:39:18.454Z,81.50
2022-11-19T10:41:53.937Z,81.98
2022-11-19T10:44:41.248Z,81.51
2022-11-19T10:47:18.517Z,79.51
2022-11-19T10:49:46.532Z,80.54
2022-11-19T10:52:26.643Z,79.83
2022-11-19T10:54:59.616Z,79.65
2022-11-19T10:57:31.487Z,81.00
2022-11-19T11:00:00.873Z,78.87
2022-11-19T11:02:35.036Z,80.23
2022-11-19T11:05:10.829Z,80.71
2022-11-19T11:07:51.471Z,79.78
2022-11-19T11:10:38.438Z,79.75
2022-11-19T11:13:34.890Z,78.89
2022-11-19T11:16:08.588Z,79.49
2022-11-19T11:18:40.687Z,80.19
2022-11-19T11:21:13.372Z,79.46
2022-11-19T11:23:51.773Z,79.93
2022-11-19T11:26:22.968Z,79.59
2022-11-19T11:29:05.520Z,79.79
2022-11-19T11:31:36.109Z,79.35
2022-11-19T11:34:06.433Z,78.69
2022-11-19T11:36:36.754Z,79.59
2022-11-19T11:39:06.672Z,79.39
2022-11-19T11:44:28.098Z,80.41
2022-11-19T11:46:58.331Z,79.94
2022-11-19T11:49:30.889Z,79.44
2022-11-19T11:52:18.031Z,79.05
2022-11-19T11:54:58.038Z,78.75
2022-11-19T11:57:27.653Z,79.43
2022-11-19T11:59:55.807Z,79.65
2022-11-19T12:02:30.270Z,79.96
2022-11-19T12:05:02.276Z,75.73
2022-11-19T12:08:04.891Z,77.69
2022-11-19T12:10:45.138Z,77.17
2022-11-19T12:13:36.984Z,75.19
2022-11-19T12:16:11.149Z,77.63
2022-11-19T12:18:48.962Z,76.57
2022-11-19T12:21:31.904Z,75.60
2022-11-19T12:24:10.589Z,77.21
2022-11-19T12:26:51.848Z,76.99
2022-11-19T12:29:29.263Z,78.15
2022-11-19T12:32:09.408Z,75.51
2022-11-19T12:35:08.214Z,75.22
2022-11-19T12:37:53.736Z,73.82
2022-11-19T12:40:40.343Z,75.84
2022-11-19T12:43:22.627Z,75.83
2022-11-19T12:46:02.199Z,77.54
2022-11-19T12:48:50.143Z,76.73
2022-11-19T12:51:28.921Z,76.48
2022-11-19T12:54:34.688Z,75.50
2022-11-19T12:57:18.229Z,76.95
2022-11-19T13:00:04.705Z,75.35
2022-11-19T13:02:38.670Z,74.96
2022-11-19T13:05:15.356Z,75.21
2022-11-19T13:07:49.656Z,74.29
2022-11-19T13:10:24.261Z,74.74
2022-11-19T13:12:54.570Z,75.20
2022-11-19T13:15:25.709Z,74.73
2022-11-19T13:17:56.547Z,74.76
2022-11-19T13:20:28.663Z,74.84
2022-11-19T13:23:00.867Z,75.10
2022-11-19T13:25:32.888Z,75.46
2022-11-19T13:28:04.561Z,76.93
2022-11-19T13:30:35.160Z,74.63
2022-11-19T13:33:12.604Z,76.13
2022-11-19T13:35:49.606Z,74.78
2022-11-19T13:38:22.280Z,75.90
2022-11-19T13:40:56.518Z,74.81
2022-11-19T13:43:41.937Z,75.15
2022-11-19T13:46:21.635Z,74.20
2022-11-19T13:48:56.842Z,74.40
2022-11-19T13:51:30.314Z,74.18
2022-11-19T13:54:02.954Z,75.48
2022-11-19T13:56:49.654Z,73.04
2022-11-19T13:59:39.661Z,73.12
2022-11-19T14:02:42.699Z,72.00
2022-11-19T14:05:44.544Z,73.32
2022-11-19T14:08:29.724Z,73.83
2022-11-19T14:11:10.401Z,74.33
2022-11-19T14:13:59.995Z,74.43
2022-11-19T14:16:54.793Z,74.93
2022-11-19T14:19:40.174Z,75.23
2022-11-19T14:22:49.718Z,74.34
2022-11-19T14:25:59.783Z,73.42
2022-11-19T14:28:49.681Z,73.85
2022-11-19T14:31:20.917Z,73.64
2022-11-19T14:34:00.165Z,70.59
2022-11-19T14:36:44.892Z,73.46
2022-11-19T14:39:24.673Z,72.80
2022-11-19T14:42:13.910Z,73.47
2022-11-19T14:44:42.012Z,73.54
2022-11-19T14:47:35.301Z,72.79
2022-11-19T14:50:08.272Z,72.72
2022-11-19T14:52:39.865Z,73.85
2022-11-19T14:55:21.496Z,73.29
2022-11-19T14:57:57.634Z,73.72
2022-11-19T15:00:31.026Z,73.59
2022-11-19T15:03:03.054Z,73.95
2022-11-19T15:05:34.366Z,72.50
2022-11-19T15:08:43.091Z,72.44
2022-11-19T15:11:12.724Z,74.27
2022-11-19T15:13:41.321Z,73.21
2022-11-19T15:16:15.948Z,71.79
2022-11-19T15:19:19.293Z,71.53
2022-11-19T15:22:19.103Z,72.34
2022-11-19T15:25:01.611Z,72.92
2022-11-19T15:27:43.113Z,73.00
2022-11-19T15:30:18.712Z,73.44
2022-11-19T15:33:04.167Z,73.29
2022-11-19T15:35:53.626Z,73.26
2022-11-19T15:38:31.251Z,73.87
2022-11-19T15:41:02.336Z,73.81
2022-11-19T15:43:34.589Z,73.76
2022-11-19T15:46:08.446Z,73.33
2022-11-19T15:48:42.860Z,73.77
2022-11-19T15:51:17.516Z,73.96
2022-11-19T15:53:59.740Z,73.22
2022-11-19T15:56:30.800Z,74.95
2022-11-19T15:58:59.529Z,74.96
2022-11-19T16:01:27.458Z,74.59
2022-11-19T16:03:55.514Z,74.69
2022-11-19T16:06:29.129Z,74.06
2022-11-19T16:09:00.728Z,73.61
2022-11-19T16:11:53.515Z,74.44
2022-11-19T16:14:40.601Z,74.05
2022-11-19T16:17:30.950Z,74.77
2022-11-19T16:20:19.220Z,73.61
2022-11-19T16:22:53.253Z,74.98
2022-11-19T16:25:31.544Z,74.14
2022-11-19T16:28:02.247Z,74.59
2022-11-19T16:30:32.373Z,75.04
2022-11-19T16:33:00.869Z,73.43
2022-11-19T16:35:32.211Z,73.41
2022-11-19T16:38:02.537Z,74.48
2022-11-19T16:40:53.286Z,73.68
2022-11-19T16:43:20.906Z,74.41
2022-11-19T16:45:50.078Z,74.00
2022-11-19T16:48:54.181Z,73.46
2022-11-19T16:51:40.167Z,73.04
2022-11-19T16:54:11.123Z,74.42
2022-11-19T16:56:45.609Z,73.71
2022-11-19T16:59:23.782Z,73.76
2022-11-19T17:01:54.232Z,73.68
2022-11-19T17:04:24.370Z,74.21
2022-11-19T17:06:52.716Z,74.16
2022-11-19T17:09:35.936Z,73.44
2022-11-19T17:12:18.806Z,74.49
2022-11-19T17:14:50.368Z,74.89
2022-11-19T17:17:41.109Z,73.38
2022-11-19T17:21:01.612Z,72.77
2022-11-19T17:23:31.563Z,73.36
2022-11-19T17:26:02.932Z,73.03
2022-11-19T17:28:36.486Z,73.20
2022-11-19T17:31:16.989Z,73.77
2022-11-19T17:33:56.485Z,71.81
2022-11-19T17:36:29.267Z,73.58
2022-11-19T17:38:57.166Z,73.50
2022-11-19T17:41:46.625Z,73.72
2022-11-19T17:44:35.736Z,73.84
2022-11-19T17:47:07.362Z,73.46
2022-11-19T17:49:46.736Z,72.18
2022-11-19T17:52:22.446Z,71.77
2022-11-19T17:54:50.506Z,72.87
2022-11-19T17:57:19.923Z,72.57
2022-11-19T17:59:47.779Z,72.17
2022-11-19T18:02:17.805Z,72.11
2022-11-19T18:04:46.868Z,72.94
2022-11-19T18:07:15.572Z,73.60
2022-11-19T18:09:43.435Z,73.82
2022-11-19T18:12:15.657Z,72.72
2022-11-19T18:14:45.305Z,72.57
2022-11-19T18:17:14.392Z,72.41
2022-11-19T18:19:42.559Z,73.46
2022-11-19T18:22:16.951Z,72.83
2022-11-19T18:24:44.916Z,72.90
2022-11-19T18:27:12.699Z,72.74
2022-11-19T18:29:40.517Z,73.30
2022-11-19T18:32:11.712Z,72.73
2022-11-19T18:34:39.510Z,73.46
2022-11-19T18:37:07.343Z,73.26
2022-11-19T18:39:35.193Z,73.10
2022-11-19T18:42:02.964Z,73.14
2022-11-19T18:44:35.676Z,73.35
2022-11-19T18:47:05.457Z,73.17
2022-11-19T18:49:35.196Z,72.83
2022-11-19T18:52:03.840Z,72.66
2022-11-19T18:54:31.748Z,72.13
2022-11-19T18:56:59.864Z,72.31
2022-11-19T18:59:28.790Z,71.95
2022-11-19T19:01:56.969Z,73.09
2022-11-19T19:04:25.454Z,73.32
2022-11-19T19:06:55.052Z,72.60
2022-11-19T19:09:23.607Z,73.34
2022-11-19T19:12:13.533Z,73.05
2022-11-19T19:14:42.029Z,73.30
2022-11-19T19:17:09.864Z,73.58
2022-11-19T19:19:37.760Z,73.22
2022-11-19T19:22:07.913Z,73.56
2022-11-19T19:24:35.915Z,73.60
2022-11-19T19:27:04.535Z,73.74
2022-11-19T19:29:32.537Z,73.42
2022-11-19T19:32:00.512Z,73.82
2022-11-19T19:34:29.970Z,73.25
2022-11-19T19:36:57.910Z,72.98
2022-11-19T19:39:27.243Z,73.51
2022-11-19T19:41:55.448Z,73.28
2022-11-19T19:44:23.331Z,73.60
2022-11-19T19:46:51.128Z,73.54
2022-11-19T19:49:19.596Z,73.44
2022-11-19T19:51:48.193Z,73.66
2022-11-19T19:54:16.053Z,73.79
2022-11-19T19:56:45.257Z,73.90
2022-11-19T19:59:14.875Z,74.29
2022-11-19T20:01:46.114Z,74.16
2022-11-19T20:04:14.491Z,74.00
2022-11-19T20:06:46.658Z,74.29
2022-11-19T20:09:14.745Z,73.89
2022-11-19T20:11:42.636Z,74.26
2022-11-19T20:14:11.935Z,74.18
2022-11-19T20:16:42.050Z,74.61
2022-11-19T20:19:14.122Z,73.68
2022-11-19T20:21:42.218Z,74.41
2022-11-19T20:24:12.884Z,74.12
2022-11-19T20:26:42.065Z,74.11
2022-11-19T20:29:14.614Z,74.14
2022-11-19T20:31:46.878Z,74.28
2022-11-19T20:34:16.128Z,74.64
2022-11-19T20:36:44.899Z,74.71
2022-11-19T20:39:13.155Z,74.25
2022-11-19T20:41:54.949Z,74.36
2022-11-19T20:44:24.173Z,74.47
2022-11-19T20:46:53.980Z,74.75
2022-11-19T20:49:24.615Z,74.74
2022-11-19T20:51:53.216Z,74.86
2022-11-19T20:54:22.316Z,75.11
2022-11-19T20:56:51.202Z,75.04
2022-11-19T20:59:20.615Z,75.16
2022-11-19T21:01:51.131Z,75.20
2022-11-19T21:04:19.212Z,75.56
2022-11-19T21:06:47.077Z,75.33
2022-11-19T21:09:15.884Z,75.58
2022-11-19T21:11:44.225Z,75.83
2022-11-19T21:14:12.313Z,75.25
2022-11-19T21:16:40.253Z,75.04
2022-11-19T21:19:10.741Z,75.58
2022-11-19T21:21:39.093Z,75.16
2022-11-19T21:24:08.042Z,75.83
2022-11-19T21:26:35.802Z,75.91
2022-11-19T21:29:03.775Z,75.58
2022-11-19T21:31:39.948Z,75.90
2022-11-19T21:34:11.756Z,75.77
2022-11-19T21:36:40.517Z,76.12
2022-11-19T21:39:09.507Z,75.96
2022-11-19T21:41:37.602Z,76.15
2022-11-19T21:44:06.143Z,76.09
2022-11-19T21:46:34.619Z,75.82
2022-11-19T21:49:03.218Z,76.13
2022-11-19T21:51:32.665Z,76.38
2022-11-19T21:54:01.030Z,76.62
2022-11-19T21:56:33.807Z,76.44
2022-11-19T21:59:05.260Z,76.35
2022-11-19T22:01:33.151Z,76.91
2022-11-19T22:04:00.871Z,77.07
2022-11-19T22:06:28.947Z,77.15
2022-11-19T22:08:58.173Z,77.43
2022-11-19T22:11:32.488Z,77.09
2022-11-19T22:14:03.242Z,77.03
2022-11-19T22:16:33.010Z,77.05
2022-11-19T22:19:01.258Z,77.11
2022-11-19T22:21:30.215Z,77.15
2022-11-19T22:23:59.737Z,77.13
2022-11-19T22:26:27.788Z,77.45
2022-11-19T22:28:55.925Z,77.47
2022-11-19T22:31:24.374Z,77.58
2022-11-19T22:33:53.791Z,78.01
2022-11-19T22:36:23.097Z,77.64
2022-11-19T22:38:52.404Z,78.06
2022-11-19T22:41:22.897Z,77.99
2022-11-19T22:43:51.732Z,78.02
2022-11-19T22:46:20.526Z,78.11
2022-11-19T22:48:48.388Z,77.84
2022-11-19T22:51:18.530Z,77.98
2022-11-19T22:53:46.451Z,77.77
2022-11-19T22:56:16.291Z,78.26
2022-11-19T22:58:45.751Z,78.25
2022-11-19T23:01:16.760Z,78.60
2022-11-19T23:03:44.901Z,78.53
2022-11-19T23:06:12.743Z,78.55
2022-11-19T23:08:40.594Z,79.24
2022-11-19T23:11:09.699Z,78.88
2022-11-19T23:13:39.279Z,79.26
2022-11-19T23:16:10.862Z,79.02
2022-11-19T23:18:41.160Z,79.29
2022-11-19T23:21:11.129Z,78.98
2022-11-19T23:23:39.165Z,79.04
2022-11-19T23:26:08.720Z,78.67
2022-11-19T23:28:38.403Z,78.83
2022-11-19T23:31:09.031Z,79.31
2022-11-19T23:33:37.773Z,79.53
2022-11-19T23:36:07.617Z,79.48
2022-11-19T23:38:36.245Z,79.78
2022-11-19T23:41:05.769Z,79.67
2022-11-19T23:43:34.087Z,79.79
2022-11-19T23:46:05.498Z,80.09
2022-11-19T23:48:35.410Z,80.32
2022-11-19T23:51:03.737Z,79.76
2022-11-19T23:53:32.050Z,80.22
2022-11-19T23:55:59.951Z,79.91
2022-11-19T23:58:27.891Z,80.35
